sensor_id;sensor_type;location;lat;lon;timestamp;P1;durP1;ratioP1;P2;durP2;ratioP2
36585;SDS011;22591;48.314;11.562;2023-03-23T00:01:46;4.53;;;4.13;;
36585;SDS011;22591;48.314;11.562;2023-03-23T00:04:14;5.30;;;3.47;;
36585;SDS011;22591;48.314;11.562;2023-03-23T00:06:40;4.53;;;3.55;;
36585;SDS011;22591;48.314;11.562;2023-03-23T00:09:08;4.72;;;3.42;;
36585;SDS011;22591;48.314;11.562;2023-03-23T00:11:34;4.40;;;3.63;;
36585;SDS011;22591;48.314;11.562;2023-03-23T00:14:00;3.90;;;3.58;;
36585;SDS011;22591;48.314;11.562;2023-03-23T00:16:27;5.45;;;3.78;;
36585;SDS011;22591;48.314;11.562;2023-03-23T00:21:26;5.30;;;3.67;;
36585;SDS011;22591;48.314;11.562;2023-03-23T00:24:00;3.83;;;3.50;;
36585;SDS011;22591;48.314;11.562;2023-03-23T00:26:26;4.10;;;3.65;;
36585;SDS011;22591;48.314;11.562;2023-03-23T00:28:54;4.50;;;3.72;;
36585;SDS011;22591;48.314;11.562;2023-03-23T00:31:20;5.47;;;3.22;;
36585;SDS011;22591;48.314;11.562;2023-03-23T00:33:45;3.85;;;3.53;;
36585;SDS011;22591;48.314;11.562;2023-03-23T00:36:11;3.72;;;3.42;;
36585;SDS011;22591;48.314;11.562;2023-03-23T00:38:39;3.95;;;3.25;;
36585;SDS011;22591;48.314;11.562;2023-03-23T00:41:05;4.55;;;4.18;;
36585;SDS011;22591;48.314;11.562;2023-03-23T00:43:32;4.07;;;3.78;;
36585;SDS011;22591;48.314;11.562;2023-03-23T00:46:01;4.32;;;3.55;;
36585;SDS011;22591;48.314;11.562;2023-03-23T00:48:33;4.45;;;3.75;;
36585;SDS011;22591;48.314;11.562;2023-03-23T00:51:00;4.03;;;3.72;;
36585;SDS011;22591;48.314;11.562;2023-03-23T00:53:31;3.67;;;3.38;;
36585;SDS011;22591;48.314;11.562;2023-03-23T00:55:57;3.80;;;3.50;;
36585;SDS011;22591;48.314;11.562;2023-03-23T00:58:23;4.57;;;4.10;;
36585;SDS011;22591;48.314;11.562;2023-03-23T01:00:48;4.20;;;3.80;;
36585;SDS011;22591;48.314;11.562;2023-03-23T01:03:14;4.13;;;3.25;;
36585;SDS011;22591;48.314;11.562;2023-03-23T01:05:43;4.10;;;3.78;;
36585;SDS011;22591;48.314;11.562;2023-03-23T01:08:11;4.00;;;3.70;;
36585;SDS011;22591;48.314;11.562;2023-03-23T01:10:38;3.90;;;3.30;;
36585;SDS011;22591;48.314;11.562;2023-03-23T01:13:04;5.70;;;3.85;;
36585;SDS011;22591;48.314;11.562;2023-03-23T01:15:31;4.10;;;3.80;;
36585;SDS011;22591;48.314;11.562;2023-03-23T01:17:56;5.78;;;4.53;;
36585;SDS011;22591;48.314;11.562;2023-03-23T01:20:23;6.43;;;4.47;;
36585;SDS011;22591;48.314;11.562;2023-03-23T01:22:49;4.68;;;4.30;;
36585;SDS011;22591;48.314;11.562;2023-03-23T01:25:15;6.00;;;4.05;;
36585;SDS011;22591;48.314;11.562;2023-03-23T01:27:40;11.43;;;5.30;;
36585;SDS011;22591;48.314;11.562;2023-03-23T01:30:07;4.90;;;4.50;;
36585;SDS011;22591;48.314;11.562;2023-03-23T01:32:35;5.63;;;5.13;;
36585;SDS011;22591;48.314;11.562;2023-03-23T01:35:00;4.70;;;4.32;;
36585;SDS011;22591;48.314;11.562;2023-03-23T01:37:26;5.25;;;4.85;;
36585;SDS011;22591;48.314;11.562;2023-03-23T01:39:52;8.13;;;4.93;;
36585;SDS011;22591;48.314;11.562;2023-03-23T01:42:25;8.85;;;5.50;;
36585;SDS011;22591;48.314;11.562;2023-03-23T01:45:17;6.95;;;5.20;;
36585;SDS011;22591;48.314;11.562;2023-03-23T01:47:47;5.95;;;5.22;;
36585;SDS011;22591;48.314;11.562;2023-03-23T01:50:17;6.53;;;4.70;;
36585;SDS011;22591;48.314;11.562;2023-03-23T01:52:45;5.55;;;4.47;;
36585;SDS011;22591;48.314;11.562;2023-03-23T01:55:11;5.25;;;4.85;;
36585;SDS011;22591;48.314;11.562;2023-03-23T01:57:37;5.90;;;5.25;;
36585;SDS011;22591;48.314;11.562;2023-03-23T02:00:05;5.38;;;4.90;;
36585;SDS011;22591;48.314;11.562;2023-03-23T02:02:35;5.63;;;4.90;;
36585;SDS011;22591;48.314;11.562;2023-03-23T02:05:04;6.30;;;5.53;;
36585;SDS011;22591;48.314;11.562;2023-03-23T02:07:36;6.22;;;5.63;;
36585;SDS011;22591;48.314;11.562;2023-03-23T02:10:02;6.10;;;5.47;;
36585;SDS011;22591;48.314;11.562;2023-03-23T02:12:28;5.40;;;4.88;;
36585;SDS011;22591;48.314;11.562;2023-03-23T02:14:54;7.13;;;5.38;;
36585;SDS011;22591;48.314;11.562;2023-03-23T02:17:23;6.05;;;5.55;;
36585;SDS011;22591;48.314;11.562;2023-03-23T02:34:04;4.95;;;4.53;;
36585;SDS011;22591;48.314;11.562;2023-03-23T02:36:39;5.10;;;4.70;;
36585;SDS011;22591;48.314;11.562;2023-03-23T02:39:24;5.07;;;4.68;;
36585;SDS011;22591;48.314;11.562;2023-03-23T02:41:56;5.68;;;4.72;;
36585;SDS011;22591;48.314;11.562;2023-03-23T02:44:27;5.43;;;4.93;;
36585;SDS011;22591;48.314;11.562;2023-03-23T02:46:55;5.18;;;4.38;;
36585;SDS011;22591;48.314;11.562;2023-03-23T02:49:24;5.10;;;4.70;;
36585;SDS011;22591;48.314;11.562;2023-03-23T02:51:52;4.75;;;4.38;;
36585;SDS011;22591;48.314;11.562;2023-03-23T02:54:19;5.78;;;5.18;;
36585;SDS011;22591;48.314;11.562;2023-03-23T02:56:48;5.40;;;5.00;;
36585;SDS011;22591;48.314;11.562;2023-03-23T02:59:15;4.97;;;4.63;;
36585;SDS011;22591;48.314;11.562;2023-03-23T03:04:09;6.25;;;4.85;;
36585;SDS011;22591;48.314;11.562;2023-03-23T03:09:20;5.50;;;5.10;;
36585;SDS011;22591;48.314;11.562;2023-03-23T03:11:59;7.60;;;5.07;;
36585;SDS011;22591;48.314;11.562;2023-03-23T03:14:31;4.82;;;4.43;;
36585;SDS011;22591;48.314;11.562;2023-03-23T03:17:16;7.65;;;4.40;;
36585;SDS011;22591;48.314;11.562;2023-03-23T03:19:53;4.68;;;4.38;;
36585;SDS011;22591;48.314;11.562;2023-03-23T03:22:31;4.60;;;4.25;;
36585;SDS011;22591;48.314;11.562;2023-03-23T03:24:58;4.82;;;4.53;;
36585;SDS011;22591;48.314;11.562;2023-03-23T03:27:26;4.80;;;4.40;;
36585;SDS011;22591;48.314;11.562;2023-03-23T03:29:54;4.50;;;4.03;;
36585;SDS011;22591;48.314;11.562;2023-03-23T03:32:25;5.63;;;4.13;;
36585;SDS011;22591;48.314;11.562;2023-03-23T03:35:09;4.97;;;4.57;;
36585;SDS011;22591;48.314;11.562;2023-03-23T03:37:35;4.65;;;4.13;;
36585;SDS011;22591;48.314;11.562;2023-03-23T03:40:03;4.10;;;3.80;;
36585;SDS011;22591;48.314;11.562;2023-03-23T03:42:35;5.22;;;4.55;;
36585;SDS011;22591;48.314;11.562;2023-03-23T03:45:02;5.45;;;4.25;;
36585;SDS011;22591;48.314;11.562;2023-03-23T03:47:28;6.45;;;4.45;;
36585;SDS011;22591;48.314;11.562;2023-03-23T03:49:53;4.90;;;4.40;;
36585;SDS011;22591;48.314;11.562;2023-03-23T03:52:19;4.13;;;3.72;;
36585;SDS011;22591;48.314;11.562;2023-03-23T03:54:44;4.47;;;4.07;;
36585;SDS011;22591;48.314;11.562;2023-03-23T03:57:11;4.43;;;4.13;;
36585;SDS011;22591;48.314;11.562;2023-03-23T03:59:37;4.20;;;3.83;;
36585;SDS011;22591;48.314;11.562;2023-03-23T04:02:02;4.90;;;4.22;;
36585;SDS011;22591;48.314;11.562;2023-03-23T04:04:28;3.80;;;3.50;;
36585;SDS011;22591;48.314;11.562;2023-03-23T04:06:54;6.65;;;3.92;;
36585;SDS011;22591;48.314;11.562;2023-03-23T04:09:20;4.70;;;3.80;;
36585;SDS011;22591;48.314;11.562;2023-03-23T04:11:46;4.10;;;3.80;;
36585;SDS011;22591;48.314;11.562;2023-03-23T04:14:12;3.70;;;3.50;;
36585;SDS011;22591;48.314;11.562;2023-03-23T04:16:37;4.65;;;3.92;;
36585;SDS011;22591;48.314;11.562;2023-03-23T04:19:03;4.00;;;3.72;;
36585;SDS011;22591;48.314;11.562;2023-03-23T04:21:29;6.18;;;4.15;;
36585;SDS011;22591;48.314;11.562;2023-03-23T04:23:58;4.03;;;3.72;;
36585;SDS011;22591;48.314;11.562;2023-03-23T04:26:28;4.05;;;3.75;;
36585;SDS011;22591;48.314;11.562;2023-03-23T04:28:54;6.88;;;3.58;;
36585;SDS011;22591;48.314;11.562;2023-03-23T04:31:20;5.80;;;3.92;;
36585;SDS011;22591;48.314;11.562;2023-03-23T04:33:49;4.78;;;3.30;;
36585;SDS011;22591;48.314;11.562;2023-03-23T04:36:17;5.68;;;3.17;;
36585;SDS011;22591;48.314;11.562;2023-03-23T04:38:43;4.20;;;3.85;;
36585;SDS011;22591;48.314;11.562;2023-03-23T04:41:09;4.18;;;3.58;;
36585;SDS011;22591;48.314;11.562;2023-03-23T04:43:34;5.35;;;3.50;;
36585;SDS011;22591;48.314;11.562;2023-03-23T04:48:33;3.97;;;3.20;;
36585;SDS011;22591;48.314;11.562;2023-03-23T04:51:02;3.38;;;3.17;;
36585;SDS011;22591;48.314;11.562;2023-03-23T04:53:29;3.60;;;3.30;;
36585;SDS011;22591;48.314;11.562;2023-03-23T04:55:56;4.10;;;3.75;;
36585;SDS011;22591;48.314;11.562;2023-03-23T04:58:21;4.35;;;3.17;;
36585;SDS011;22591;48.314;11.562;2023-03-23T05:00:49;3.72;;;3.42;;
36585;SDS011;22591;48.314;11.562;2023-03-23T05:03:16;3.42;;;3.22;;
36585;SDS011;22591;48.314;11.562;2023-03-23T05:05:43;4.93;;;3.05;;
36585;SDS011;22591;48.314;11.562;2023-03-23T05:08:12;4.22;;;3.15;;
36585;SDS011;22591;48.314;11.562;2023-03-23T05:10:38;3.47;;;3.28;;
36585;SDS011;22591;48.314;11.562;2023-03-23T05:13:04;3.30;;;3.10;;
36585;SDS011;22591;48.314;11.562;2023-03-23T05:15:30;3.08;;;2.88;;
36585;SDS011;22591;48.314;11.562;2023-03-23T05:17:55;2.75;;;2.55;;
36585;SDS011;22591;48.314;11.562;2023-03-23T05:20:21;3.30;;;3.05;;
36585;SDS011;22591;48.314;11.562;2023-03-23T05:22:47;3.08;;;2.88;;
36585;SDS011;22591;48.314;11.562;2023-03-23T05:25:14;4.10;;;3.55;;
36585;SDS011;22591;48.314;11.562;2023-03-23T05:27:40;3.00;;;2.80;;
36585;SDS011;22591;48.314;11.562;2023-03-23T05:30:13;4.03;;;3.72;;
36585;SDS011;22591;48.314;11.562;2023-03-23T05:32:41;3.38;;;3.17;;
36585;SDS011;22591;48.314;11.562;2023-03-23T05:35:07;5.38;;;3.22;;
36585;SDS011;22591;48.314;11.562;2023-03-23T05:37:33;4.57;;;3.60;;
36585;SDS011;22591;48.314;11.562;2023-03-23T05:39:59;3.50;;;3.22;;
36585;SDS011;22591;48.314;11.562;2023-03-23T05:42:30;3.53;;;3.22;;
36585;SDS011;22591;48.314;11.562;2023-03-23T05:44:55;3.28;;;2.90;;
36585;SDS011;22591;48.314;11.562;2023-03-23T05:47:21;4.50;;;2.88;;
36585;SDS011;22591;48.314;11.562;2023-03-23T05:49:47;3.45;;;3.15;;
36585;SDS011;22591;48.314;11.562;2023-03-23T05:52:12;4.07;;;3.30;;
36585;SDS011;22591;48.314;11.562;2023-03-23T05:54:38;5.57;;;3.20;;
36585;SDS011;22591;48.314;11.562;2023-03-23T05:57:03;3.05;;;2.78;;
36585;SDS011;22591;48.314;11.562;2023-03-23T05:59:30;3.42;;;3.08;;
36585;SDS011;22591;48.314;11.562;2023-03-23T06:01:56;3.30;;;3.00;;
36585;SDS011;22591;48.314;11.562;2023-03-23T06:04:22;3.83;;;2.58;;
36585;SDS011;22591;48.314;11.562;2023-03-23T06:06:49;4.13;;;2.85;;
36585;SDS011;22591;48.314;11.562;2023-03-23T06:09:16;3.72;;;2.90;;
36585;SDS011;22591;48.314;11.562;2023-03-23T06:11:42;4.15;;;2.53;;
36585;SDS011;22591;48.314;11.562;2023-03-23T06:14:08;2.88;;;2.53;;
36585;SDS011;22591;48.314;11.562;2023-03-23T06:16:34;5.22;;;3.47;;
36585;SDS011;22591;48.314;11.562;2023-03-23T06:18:59;3.78;;;3.00;;
36585;SDS011;22591;48.314;11.562;2023-03-23T06:21:25;7.63;;;2.35;;
36585;SDS011;22591;48.314;11.562;2023-03-23T06:23:52;4.75;;;2.85;;
36585;SDS011;22591;48.314;11.562;2023-03-23T06:26:18;3.40;;;3.20;;
36585;SDS011;22591;48.314;11.562;2023-03-23T06:28:44;6.38;;;3.17;;
36585;SDS011;22591;48.314;11.562;2023-03-23T06:31:10;2.95;;;2.67;;
36585;SDS011;22591;48.314;11.562;2023-03-23T06:33:36;5.63;;;3.03;;
36585;SDS011;22591;48.314;11.562;2023-03-23T06:36:03;3.38;;;2.30;;
36585;SDS011;22591;48.314;11.562;2023-03-23T06:38:29;6.50;;;2.88;;
36585;SDS011;22591;48.314;11.562;2023-03-23T06:40:55;2.63;;;2.42;;
36585;SDS011;22591;48.314;11.562;2023-03-23T06:43:22;4.68;;;2.55;;
36585;SDS011;22591;48.314;11.562;2023-03-23T06:45:48;3.70;;;2.47;;
36585;SDS011;22591;48.314;11.562;2023-03-23T06:48:15;3.55;;;2.85;;
36585;SDS011;22591;48.314;11.562;2023-03-23T06:50:44;2.70;;;2.50;;
36585;SDS011;22591;48.314;11.562;2023-03-23T06:53:10;3.38;;;2.90;;
36585;SDS011;22591;48.314;11.562;2023-03-23T06:55:36;5.22;;;2.67;;
36585;SDS011;22591;48.314;11.562;2023-03-23T06:58:03;6.10;;;2.53;;
36585;SDS011;22591;48.314;11.562;2023-03-23T07:00:30;4.22;;;3.90;;
36585;SDS011;22591;48.314;11.562;2023-03-23T07:02:56;5.40;;;3.72;;
36585;SDS011;22591;48.314;11.562;2023-03-23T07:05:22;4.00;;;3.40;;
36585;SDS011;22591;48.314;11.562;2023-03-23T07:07:47;3.75;;;3.45;;
36585;SDS011;22591;48.314;11.562;2023-03-23T07:10:13;4.88;;;4.07;;
36585;SDS011;22591;48.314;11.562;2023-03-23T07:12:38;3.05;;;2.85;;
36585;SDS011;22591;48.314;11.562;2023-03-23T07:15:07;4.28;;;2.88;;
36585;SDS011;22591;48.314;11.562;2023-03-23T07:17:35;5.45;;;3.55;;
36585;SDS011;22591;48.314;11.562;2023-03-23T07:20:01;3.92;;;3.22;;
36585;SDS011;22591;48.314;11.562;2023-03-23T07:22:27;3.65;;;3.35;;
36585;SDS011;22591;48.314;11.562;2023-03-23T07:24:52;10.10;;;3.97;;
36585;SDS011;22591;48.314;11.562;2023-03-23T07:27:18;4.88;;;3.70;;
36585;SDS011;22591;48.314;11.562;2023-03-23T07:29:44;3.85;;;3.53;;
36585;SDS011;22591;48.314;11.562;2023-03-23T07:32:10;6.53;;;3.88;;
36585;SDS011;22591;48.314;11.562;2023-03-23T07:34:37;4.90;;;3.35;;
36585;SDS011;22591;48.314;11.562;2023-03-23T07:37:03;7.38;;;4.47;;
36585;SDS011;22591;48.314;11.562;2023-03-23T07:39:30;4.75;;;4.18;;
36585;SDS011;22591;48.314;11.562;2023-03-23T07:41:56;6.63;;;4.03;;
36585;SDS011;22591;48.314;11.562;2023-03-23T07:44:22;8.15;;;3.47;;
36585;SDS011;22591;48.314;11.562;2023-03-23T07:46:47;4.45;;;3.53;;
36585;SDS011;22591;48.314;11.562;2023-03-23T07:49:13;3.90;;;3.15;;
36585;SDS011;22591;48.314;11.562;2023-03-23T07:51:39;5.30;;;3.35;;
36585;SDS011;22591;48.314;11.562;2023-03-23T07:54:05;6.78;;;3.60;;
36585;SDS011;22591;48.314;11.562;2023-03-23T07:56:32;5.53;;;3.47;;
36585;SDS011;22591;48.314;11.562;2023-03-23T07:58:59;6.38;;;2.90;;
36585;SDS011;22591;48.314;11.562;2023-03-23T08:01:25;5.10;;;3.50;;
36585;SDS011;22591;48.314;11.562;2023-03-23T08:03:51;8.68;;;3.72;;
36585;SDS011;22591;48.314;11.562;2023-03-23T08:06:19;4.25;;;3.47;;
36585;SDS011;22591;48.314;11.562;2023-03-23T08:08:46;3.78;;;3.08;;
36585;SDS011;22591;48.314;11.562;2023-03-23T08:11:11;4.25;;;3.25;;
36585;SDS011;22591;48.314;11.562;2023-03-23T08:13:40;4.68;;;3.33;;
36585;SDS011;22591;48.314;11.562;2023-03-23T08:16:06;3.78;;;3.42;;
36585;SDS011;22591;48.314;11.562;2023-03-23T08:18:34;7.60;;;3.60;;
36585;SDS011;22591;48.314;11.562;2023-03-23T08:21:00;8.57;;;3.63;;
36585;SDS011;22591;48.314;11.562;2023-03-23T08:23:26;4.78;;;3.10;;
36585;SDS011;22591;48.314;11.562;2023-03-23T08:25:52;5.35;;;3.50;;
36585;SDS011;22591;48.314;11.562;2023-03-23T08:28:18;3.88;;;3.45;;
36585;SDS011;22591;48.314;11.562;2023-03-23T08:30:44;7.88;;;2.97;;
36585;SDS011;22591;48.314;11.562;2023-03-23T08:33:10;4.15;;;3.03;;
36585;SDS011;22591;48.314;11.562;2023-03-23T08:35:36;3.70;;;2.78;;
36585;SDS011;22591;48.314;11.562;2023-03-23T08:38:01;7.22;;;3.88;;
36585;SDS011;22591;48.314;11.562;2023-03-23T08:40:28;5.78;;;2.75;;
36585;SDS011;22591;48.314;11.562;2023-03-23T08:42:54;3.28;;;2.63;;
36585;SDS011;22591;48.314;11.562;2023-03-23T08:45:21;2.50;;;2.30;;
36585;SDS011;22591;48.314;11.562;2023-03-23T08:47:49;6.75;;;2.67;;
36585;SDS011;22591;48.314;11.562;2023-03-23T08:50:17;2.67;;;2.42;;
36585;SDS011;22591;48.314;11.562;2023-03-23T08:52:45;3.97;;;2.55;;
36585;SDS011;22591;48.314;11.562;2023-03-23T08:55:10;3.88;;;2.80;;
36585;SDS011;22591;48.314;11.562;2023-03-23T08:57:37;3.13;;;2.45;;
36585;SDS011;22591;48.314;11.562;2023-03-23T09:00:04;5.10;;;2.33;;
36585;SDS011;22591;48.314;11.562;2023-03-23T09:02:41;5.13;;;2.60;;
36585;SDS011;22591;48.314;11.562;2023-03-23T09:05:07;2.55;;;2.35;;
36585;SDS011;22591;48.314;11.562;2023-03-23T09:07:35;2.60;;;2.05;;
36585;SDS011;22591;48.314;11.562;2023-03-23T09:10:05;6.50;;;2.20;;
36585;SDS011;22591;48.314;11.562;2023-03-23T09:12:31;3.97;;;2.42;;
36585;SDS011;22591;48.314;11.562;2023-03-23T09:14:57;3.35;;;2.30;;
36585;SDS011;22591;48.314;11.562;2023-03-23T09:17:22;3.30;;;2.05;;
36585;SDS011;22591;48.314;11.562;2023-03-23T09:19:48;2.30;;;1.98;;
36585;SDS011;22591;48.314;11.562;2023-03-23T09:22:13;8.32;;;2.58;;
36585;SDS011;22591;48.314;11.562;2023-03-23T09:24:40;3.55;;;2.50;;
36585;SDS011;22591;48.314;11.562;2023-03-23T09:27:06;2.22;;;1.95;;
36585;SDS011;22591;48.314;11.562;2023-03-23T09:29:32;2.90;;;2.30;;
36585;SDS011;22591;48.314;11.562;2023-03-23T09:31:57;3.15;;;2.08;;
36585;SDS011;22591;48.314;11.562;2023-03-23T09:34:23;2.05;;;1.88;;
36585;SDS011;22591;48.314;11.562;2023-03-23T09:36:48;2.80;;;2.15;;
36585;SDS011;22591;48.314;11.562;2023-03-23T09:39:14;2.55;;;2.05;;
36585;SDS011;22591;48.314;11.562;2023-03-23T09:44:36;2.58;;;2.38;;
36585;SDS011;22591;48.314;11.562;2023-03-23T09:47:17;3.35;;;2.10;;
36585;SDS011;22591;48.314;11.562;2023-03-23T09:49:58;2.55;;;2.35;;
36585;SDS011;22591;48.314;11.562;2023-03-23T09:52:46;3.67;;;2.42;;
36585;SDS011;22591;48.314;11.562;2023-03-23T09:55:26;2.35;;;1.92;;
36585;SDS011;22591;48.314;11.562;2023-03-23T09:57:58;2.60;;;1.95;;
36585;SDS011;22591;48.314;11.562;2023-03-23T10:00:35;2.75;;;2.55;;
36585;SDS011;22591;48.314;11.562;2023-03-23T10:03:12;2.17;;;1.95;;
36585;SDS011;22591;48.314;11.562;2023-03-23T10:05:47;2.30;;;2.10;;
36585;SDS011;22591;48.314;11.562;2023-03-23T10:08:15;3.08;;;2.25;;
36585;SDS011;22591;48.314;11.562;2023-03-23T10:16:08;3.47;;;2.22;;
36585;SDS011;22591;48.314;11.562;2023-03-23T10:21:19;3.40;;;2.38;;
36585;SDS011;22591;48.314;11.562;2023-03-23T10:24:00;2.80;;;2.30;;
36585;SDS011;22591;48.314;11.562;2023-03-23T10:26:35;3.08;;;2.47;;
36585;SDS011;22591;48.314;11.562;2023-03-23T10:31:35;3.00;;;2.65;;
36585;SDS011;22591;48.314;11.562;2023-03-23T10:34:12;2.72;;;2.22;;
36585;SDS011;22591;48.314;11.562;2023-03-23T10:36:55;5.00;;;2.60;;
36585;SDS011;22591;48.314;11.562;2023-03-23T10:39:32;2.35;;;2.15;;
36585;SDS011;22591;48.314;11.562;2023-03-23T10:42:08;4.68;;;2.13;;
36585;SDS011;22591;48.314;11.562;2023-03-23T10:44:34;4.50;;;2.05;;
36585;SDS011;22591;48.314;11.562;2023-03-23T10:47:01;6.43;;;2.17;;
36585;SDS011;22591;48.314;11.562;2023-03-23T10:49:34;2.92;;;2.60;;
36585;SDS011;22591;48.314;11.562;2023-03-23T10:52:04;4.72;;;2.25;;
36585;SDS011;22591;48.314;11.562;2023-03-23T10:54:51;4.65;;;2.20;;
36585;SDS011;22591;48.314;11.562;2023-03-23T10:57:28;2.40;;;2.15;;
36585;SDS011;22591;48.314;11.562;2023-03-23T11:00:03;3.00;;;2.25;;
36585;SDS011;22591;48.314;11.562;2023-03-23T11:02:47;2.75;;;2.55;;
36585;SDS011;22591;48.314;11.562;2023-03-23T11:08:21;4.97;;;2.60;;
36585;SDS011;22591;48.314;11.562;2023-03-23T11:10:52;4.32;;;2.58;;
36585;SDS011;22591;48.314;11.562;2023-03-23T11:13:38;2.75;;;2.55;;
36585;SDS011;22591;48.314;11.562;2023-03-23T11:16:08;2.47;;;2.33;;
36585;SDS011;22591;48.314;11.562;2023-03-23T11:18:40;3.35;;;2.47;;
36585;SDS011;22591;48.314;11.562;2023-03-23T11:23:36;2.20;;;2.10;;
36585;SDS011;22591;48.314;11.562;2023-03-23T11:26:14;4.75;;;2.50;;
36585;SDS011;22591;48.314;11.562;2023-03-23T11:28:46;2.15;;;2.03;;
36585;SDS011;22591;48.314;11.562;2023-03-23T11:31:28;3.00;;;1.90;;
36585;SDS011;22591;48.314;11.562;2023-03-23T11:33:58;2.38;;;1.60;;
36585;SDS011;22591;48.314;11.562;2023-03-23T11:36:31;1.48;;;1.38;;
36585;SDS011;22591;48.314;11.562;2023-03-23T11:38:59;1.88;;;1.77;;
36585;SDS011;22591;48.314;11.562;2023-03-23T11:41:28;1.58;;;1.48;;
36585;SDS011;22591;48.314;11.562;2023-03-23T11:43:57;2.40;;;1.80;;
36585;SDS011;22591;48.314;11.562;2023-03-23T11:46:30;1.40;;;1.30;;
36585;SDS011;22591;48.314;11.562;2023-03-23T11:49:18;1.80;;;1.70;;
36585;SDS011;22591;48.314;11.562;2023-03-23T11:51:53;2.30;;;1.50;;
36585;SDS011;22591;48.314;11.562;2023-03-23T11:54:32;1.55;;;1.45;;
36585;SDS011;22591;48.314;11.562;2023-03-23T11:59:32;1.90;;;1.80;;
36585;SDS011;22591;48.314;11.562;2023-03-23T12:10:30;3.17;;;1.67;;
36585;SDS011;22591;48.314;11.562;2023-03-23T12:13:20;1.88;;;1.75;;
36585;SDS011;22591;48.314;11.562;2023-03-23T12:19:05;1.58;;;1.48;;
36585;SDS011;22591;48.314;11.562;2023-03-23T12:24:45;1.90;;;1.80;;
36585;SDS011;22591;48.314;11.562;2023-03-23T12:33:18;1.75;;;1.58;;
36585;SDS011;22591;48.314;11.562;2023-03-23T12:41:25;1.80;;;1.70;;
36585;SDS011;22591;48.314;11.562;2023-03-23T12:49:20;2.17;;;1.63;;
36585;SDS011;22591;48.314;11.562;2023-03-23T13:00:33;2.42;;;1.50;;
36585;SDS011;22591;48.314;11.562;2023-03-23T13:05:45;2.03;;;1.40;;
36585;SDS011;22591;48.314;11.562;2023-03-23T13:08:21;1.73;;;1.63;;
36585;SDS011;22591;48.314;11.562;2023-03-23T13:10:56;1.50;;;1.40;;
36585;SDS011;22591;48.314;11.562;2023-03-23T13:13:39;3.95;;;1.77;;
36585;SDS011;22591;48.314;11.562;2023-03-23T13:16:15;1.63;;;1.52;;
36585;SDS011;22591;48.314;11.562;2023-03-23T13:22:17;1.67;;;1.58;;
36585;SDS011;22591;48.314;11.562;2023-03-23T13:24:31;1.23;;;1.13;;
36585;SDS011;22591;48.314;11.562;2023-03-23T13:27:01;2.88;;;0.95;;
36585;SDS011;22591;48.314;11.562;2023-03-23T13:29:26;1.70;;;1.30;;
36585;SDS011;22591;48.314;11.562;2023-03-23T13:32:03;1.35;;;1.20;;
36585;SDS011;22591;48.314;11.562;2023-03-23T13:34:37;1.23;;;1.17;;
36585;SDS011;22591;48.314;11.562;2023-03-23T13:37:06;1.33;;;1.20;;
36585;SDS011;22591;48.314;11.562;2023-03-23T13:44:43;1.60;;;1.50;;
36585;SDS011;22591;48.314;11.562;2023-03-23T13:49:55;1.77;;;1.23;;
36585;SDS011;22591;48.314;11.562;2023-03-23T13:52:24;1.10;;;1.00;;
36585;SDS011;22591;48.314;11.562;2023-03-23T13:54:51;2.60;;;1.65;;
36585;SDS011;22591;48.314;11.562;2023-03-23T13:57:35;1.48;;;1.38;;
36585;SDS011;22591;48.314;11.562;2023-03-23T14:05:35;2.75;;;1.40;;
36585;SDS011;22591;48.314;11.562;2023-03-23T14:13:19;1.45;;;1.27;;
36585;SDS011;22591;48.314;11.562;2023-03-23T14:15:59;1.48;;;1.40;;
36585;SDS011;22591;48.314;11.562;2023-03-23T14:18:26;2.75;;;1.70;;
36585;SDS011;22591;48.314;11.562;2023-03-23T14:21:17;1.33;;;1.23;;
36585;SDS011;22591;48.314;11.562;2023-03-23T14:23:46;1.92;;;1.50;;
36585;SDS011;22591;48.314;11.562;2023-03-23T14:26:16;3.33;;;1.75;;
36585;SDS011;22591;48.314;11.562;2023-03-23T14:28:44;2.40;;;1.50;;
36585;SDS011;22591;48.314;11.562;2023-03-23T14:31:16;2.20;;;1.48;;
36585;SDS011;22591;48.314;11.562;2023-03-23T14:33:44;1.80;;;1.70;;
36585;SDS011;22591;48.314;11.562;2023-03-23T14:36:10;2.35;;;1.33;;
36585;SDS011;22591;48.314;11.562;2023-03-23T14:38:36;2.40;;;2.03;;
36585;SDS011;22591;48.314;11.562;2023-03-23T14:41:04;1.73;;;1.63;;
36585;SDS011;22591;48.314;11.562;2023-03-23T14:43:31;1.80;;;1.70;;
36585;SDS011;22591;48.314;11.562;2023-03-23T14:45:59;2.78;;;1.73;;
36585;SDS011;22591;48.314;11.562;2023-03-23T14:48:27;1.77;;;1.67;;
36585;SDS011;22591;48.314;11.562;2023-03-23T14:50:57;3.08;;;1.60;;
36585;SDS011;22591;48.314;11.562;2023-03-23T14:53:35;1.73;;;1.63;;
36585;SDS011;22591;48.314;11.562;2023-03-23T14:56:21;1.95;;;1.58;;
36585;SDS011;22591;48.314;11.562;2023-03-23T14:58:51;2.08;;;1.70;;
36585;SDS011;22591;48.314;11.562;2023-03-23T15:01:18;2.58;;;1.50;;
36585;SDS011;22591;48.314;11.562;2023-03-23T15:03:58;1.70;;;1.60;;
36585;SDS011;22591;48.314;11.562;2023-03-23T15:06:32;1.80;;;1.55;;
36585;SDS011;22591;48.314;11.562;2023-03-23T15:09:01;2.10;;;1.88;;
36585;SDS011;22591;48.314;11.562;2023-03-23T15:11:31;2.10;;;2.00;;
36585;SDS011;22591;48.314;11.562;2023-03-23T15:14:00;3.38;;;2.00;;
36585;SDS011;22591;48.314;11.562;2023-03-23T15:16:34;2.92;;;2.28;;
36585;SDS011;22591;48.314;11.562;2023-03-23T15:19:02;1.80;;;1.70;;
36585;SDS011;22591;48.314;11.562;2023-03-23T15:23:58;2.83;;;2.00;;
36585;SDS011;22591;48.314;11.562;2023-03-23T15:26:26;2.83;;;2.00;;
36585;SDS011;22591;48.314;11.562;2023-03-23T15:31:50;1.90;;;1.80;;
36585;SDS011;22591;48.314;11.562;2023-03-23T15:34:30;1.98;;;1.88;;
36585;SDS011;22591;48.314;11.562;2023-03-23T15:37:02;2.55;;;1.70;;
36585;SDS011;22591;48.314;11.562;2023-03-23T15:39:30;1.50;;;1.40;;
36585;SDS011;22591;48.314;11.562;2023-03-23T15:41:57;5.25;;;2.15;;
36585;SDS011;22591;48.314;11.562;2023-03-23T15:44:33;1.90;;;1.80;;
36585;SDS011;22591;48.314;11.562;2023-03-23T15:47:18;4.88;;;1.58;;
36585;SDS011;22591;48.314;11.562;2023-03-23T15:49:45;6.15;;;1.92;;
36585;SDS011;22591;48.314;11.562;2023-03-23T15:52:13;2.28;;;1.83;;
36585;SDS011;22591;48.314;11.562;2023-03-23T15:54:45;2.95;;;1.90;;
36585;SDS011;22591;48.314;11.562;2023-03-23T15:57:11;2.28;;;2.08;;
36585;SDS011;22591;48.314;11.562;2023-03-23T15:59:37;5.65;;;1.88;;
36585;SDS011;22591;48.314;11.562;2023-03-23T16:02:03;2.33;;;2.13;;
36585;SDS011;22591;48.314;11.562;2023-03-23T16:04:28;2.92;;;2.05;;
36585;SDS011;22591;48.314;11.562;2023-03-23T16:06:55;5.72;;;2.28;;
36585;SDS011;22591;48.314;11.562;2023-03-23T16:09:23;2.55;;;1.92;;
36585;SDS011;22591;48.314;11.562;2023-03-23T16:11:48;3.75;;;1.95;;
36585;SDS011;22591;48.314;11.562;2023-03-23T16:14:14;2.10;;;1.90;;
36585;SDS011;22591;48.314;11.562;2023-03-23T16:16:48;1.85;;;1.73;;
36585;SDS011;22591;48.314;11.562;2023-03-23T16:19:16;2.65;;;2.20;;
36585;SDS011;22591;48.314;11.562;2023-03-23T16:21:44;2.80;;;2.33;;
36585;SDS011;22591;48.314;11.562;2023-03-23T16:24:09;1.80;;;1.70;;
36585;SDS011;22591;48.314;11.562;2023-03-23T16:26:35;1.98;;;1.83;;
36585;SDS011;22591;48.314;11.562;2023-03-23T16:29:08;1.98;;;1.88;;
36585;SDS011;22591;48.314;11.562;2023-03-23T16:31:39;4.35;;;2.05;;
36585;SDS011;22591;48.314;11.562;2023-03-23T16:34:04;2.10;;;1.90;;
36585;SDS011;22591;48.314;11.562;2023-03-23T16:36:31;2.30;;;2.20;;
36585;SDS011;22591;48.314;11.562;2023-03-23T16:38:57;2.25;;;2.10;;
36585;SDS011;22591;48.314;11.562;2023-03-23T16:41:22;2.75;;;2.55;;